createdAt,value
2018-01-01T00:00:05.165Z,12.67
2018-01-01T00:01:05.602Z,12.67
2018-01-01T00:02:06.031Z,12.70
2018-01-01T00:03:06.452Z,12.72
2018-01-01T00:04:06.880Z,12.67
2018-01-01T00:05:07.311Z,12.72
2018-01-01T00:06:07.743Z,12.65
2018-01-01T00:07:08.202Z,12.70
2018-01-01T00:08:08.591Z,12.70
2018-01-01T00:09:09.020Z,12.68
2018-01-01T00:10:09.460Z,12.72
2018-01-01T00:11:09.881Z,12.72
2018-01-01T00:12:10.305Z,12.79
2018-01-01T00:13:10.756Z,12.67
2018-01-01T00:14:11.168Z,12.76
2018-01-01T00:15:11.587Z,12.80
2018-01-01T00:16:12.019Z,12.85
2018-01-01T00:17:12.446Z,12.80
2018-01-01T00:18:12.880Z,12.75
2018-01-01T00:19:13.299Z,12.85
2018-01-01T00:20:13.729Z,12.68
2018-01-01T00:21:14.157Z,12.62
2018-01-01T00:22:14.586Z,12.75
2018-01-01T00:23:15.009Z,12.75
2018-01-01T00:24:15.440Z,12.82
2018-01-01T00:25:15.869Z,12.80
2018-01-01T00:26:16.294Z,12.80
2018-01-01T00:27:16.733Z,12.78
2018-01-01T00:28:17.158Z,12.83
2018-01-01T00:29:17.582Z,12.73
2018-01-01T00:30:18.010Z,12.73
2018-01-01T00:31:18.439Z,12.70
2018-01-01T00:32:18.860Z,12.80
2018-01-01T00:33:19.294Z,12.80
2018-01-01T00:34:19.722Z,12.73
2018-01-01T00:35:20.149Z,12.79
2018-01-01T00:36:20.580Z,12.70
2018-01-01T00:37:21.006Z,12.70
2018-01-01T00:38:21.434Z,12.64
2018-01-01T00:39:21.891Z,12.78
2018-01-01T00:40:22.288Z,12.72
2018-01-01T00:41:22.722Z,12.72
2018-01-01T00:42:23.141Z,12.72
2018-01-01T00:43:23.573Z,12.61
2018-01-01T00:44:23.997Z,12.65
2018-01-01T00:45:24.429Z,12.68
2018-01-01T00:46:24.857Z,12.60
2018-01-01T00:47:25.307Z,12.70
2018-01-01T00:48:25.723Z,12.60
2018-01-01T00:49:26.140Z,12.61
2018-01-01T00:50:26.567Z,12.60
2018-01-01T00:51:26.992Z,12.67
2018-01-01T00:52:27.486Z,12.72
2018-01-01T00:53:27.848Z,12.72
2018-01-01T00:54:28.278Z,12.64
2018-01-01T00:55:28.708Z,12.68
2018-01-01T00:56:29.133Z,12.57
2018-01-01T00:57:29.571Z,12.67
2018-01-01T00:58:29.991Z,12.50
2018-01-01T00:59:30.416Z,12.50
2018-01-01T01:00:30.842Z,12.45
2018-01-01T01:01:31.279Z,12.53
2018-01-01T01:02:31.702Z,12.49
2018-01-01T01:03:32.132Z,12.47
2018-01-01T01:04:32.554Z,12.46
2018-01-01T01:05:33.007Z,12.46
2018-01-01T01:06:33.433Z,12.47
2018-01-01T01:07:33.836Z,12.43
2018-01-01T01:08:34.266Z,12.45
2018-01-01T01:09:34.695Z,12.39
2018-01-01T01:10:35.129Z,12.47
2018-01-01T01:11:35.560Z,12.47
2018-01-01T01:12:35.975Z,12.46
2018-01-01T01:13:36.405Z,12.36
2018-01-01T01:14:36.862Z,12.36
2018-01-01T01:15:37.273Z,12.37
2018-01-01T01:16:37.691Z,12.39
2018-01-01T01:17:38.125Z,12.28
2018-01-01T01:18:38.543Z,12.37
2018-01-01T01:19:38.973Z,12.29
2018-01-01T01:20:39.398Z,12.29
2018-01-01T01:21:39.826Z,12.28
2018-01-01T01:22:40.253Z,12.29
2018-01-01T01:23:40.681Z,12.29
2018-01-01T01:24:41.107Z,12.25
2018-01-01T01:25:41.537Z,12.24
2018-01-01T01:26:41.968Z,12.21
2018-01-01T01:27:42.389Z,12.24
2018-01-01T01:28:42.818Z,12.15
2018-01-01T01:29:43.247Z,12.24
2018-01-01T01:30:43.672Z,12.12
2018-01-01T01:31:44.101Z,12.24
2018-01-01T01:32:44.525Z,12.15
2018-01-01T01:33:44.958Z,12.21
2018-01-01T01:34:45.387Z,12.03
2018-01-01T01:35:45.808Z,12.06
2018-01-01T01:36:46.238Z,12.13
2018-01-01T01:37:46.661Z,11.97
2018-01-01T01:38:47.094Z,12.12
2018-01-01T01:39:47.537Z,12.12
2018-01-01T01:40:47.950Z,12.13
2018-01-01T01:41:48.374Z,12.10
2018-01-01T01:42:48.807Z,12.09
2018-01-01T01:43:49.226Z,12.12
2018-01-01T01:44:49.658Z,12.13
2018-01-01T01:45:50.088Z,12.12
2018-01-01T01:46:50.516Z,12.13
2018-01-01T01:47:50.941Z,12.15
2018-01-01T01:48:51.383Z,12.18
2018-01-01T01:49:51.795Z,12.20
2018-01-01T01:50:52.272Z,12.17
2018-01-01T01:51:52.646Z,12.18
2018-01-01T01:52:53.074Z,12.20
2018-01-01T01:53:53.504Z,12.18
2018-01-01T01:54:53.932Z,12.21
2018-01-01T01:55:54.356Z,12.18
2018-01-01T01:56:54.780Z,12.15
2018-01-01T01:57:55.221Z,12.17
2018-01-01T01:58:55.641Z,12.18
2018-01-01T01:59:56.063Z,12.24
2018-01-01T02:00:56.491Z,12.35
2018-01-01T02:01:56.924Z,12.24
2018-01-01T02:02:57.347Z,12.24
2018-01-01T02:03:57.782Z,12.20
2018-01-01T02:04:58.198Z,12.24
2018-01-01T02:05:58.627Z,12.13
2018-01-01T02:06:59.077Z,12.20
2018-01-01T02:07:59.529Z,12.20
2018-01-01T02:08:59.913Z,12.24
2018-01-01T02:10:00.337Z,12.27
2018-01-01T02:11:00.776Z,12.24
2018-01-01T02:12:01.220Z,12.22
2018-01-01T02:13:01.622Z,12.27
2018-01-01T02:14:02.053Z,12.21
2018-01-01T02:15:02.476Z,12.27
2018-01-01T02:16:02.897Z,12.31
2018-01-01T02:17:03.333Z,12.25
2018-01-01T02:18:03.757Z,12.24
2018-01-01T02:19:04.182Z,12.25
2018-01-01T02:20:04.608Z,12.24
2018-01-01T02:21:05.043Z,12.24
2018-01-01T02:22:05.464Z,12.21
2018-01-01T02:23:05.891Z,12.31
2018-01-01T02:24:06.320Z,12.18
2018-01-01T02:25:06.748Z,12.27
2018-01-01T02:26:07.189Z,12.22
2018-01-01T02:27:07.603Z,12.24
2018-01-01T02:28:08.032Z,12.25
2018-01-01T02:29:08.461Z,12.18
2018-01-01T02:30:08.890Z,12.17
2018-01-01T02:31:09.365Z,12.20
2018-01-01T02:32:09.742Z,12.20
2018-01-01T02:33:10.168Z,12.22
2018-01-01T02:34:10.595Z,12.20
2018-01-01T02:35:11.020Z,12.18
2018-01-01T02:36:11.447Z,12.12
2018-01-01T02:37:11.875Z,12.18
2018-01-01T02:38:12.305Z,12.28
2018-01-01T02:39:12.733Z,12.24
2018-01-01T02:40:13.161Z,12.25
2018-01-01T02:41:13.612Z,12.29
2018-01-01T02:42:14.020Z,12.24
2018-01-01T02:43:14.442Z,12.22
2018-01-01T02:44:14.869Z,12.24
2018-01-01T02:45:15.299Z,12.17
2018-01-01T02:46:15.726Z,12.22
2018-01-01T02:47:16.154Z,12.22
2018-01-01T02:48:16.579Z,12.22
2018-01-01T02:49:17.006Z,12.32
2018-01-01T02:50:17.443Z,12.24
2018-01-01T02:51:17.864Z,12.36
2018-01-01T02:52:18.290Z,12.29
2018-01-01T02:53:18.717Z,12.22
2018-01-01T02:54:19.159Z,12.24
2018-01-01T02:55:19.574Z,12.20
2018-01-01T02:56:19.996Z,12.18
2018-01-01T02:57:20.427Z,12.22
2018-01-01T02:58:20.853Z,12.10
2018-01-01T02:59:21.301Z,12.25
2018-01-01T03:00:21.714Z,12.31
2018-01-01T03:01:22.136Z,12.20
2018-01-01T03:02:22.564Z,12.25
2018-01-01T03:03:22.994Z,12.32
2018-01-01T03:04:23.418Z,12.27
2018-01-01T03:05:23.846Z,12.29
2018-01-01T03:06:24.277Z,12.21
2018-01-01T03:07:24.702Z,12.13
2018-01-01T03:08:25.127Z,12.25
2018-01-01T03:09:25.557Z,12.31
2018-01-01T03:10:25.983Z,12.25
2018-01-01T03:11:26.411Z,12.29
2018-01-01T03:12:26.864Z,12.32
2018-01-01T03:13:27.268Z,12.28
2018-01-01T03:14:27.702Z,12.31
2018-01-01T03:15:28.130Z,12.32
2018-01-01T03:16:28.551Z,12.27
2018-01-01T03:17:28.976Z,12.31
2018-01-01T03:18:29.408Z,12.25
2018-01-01T03:19:29.833Z,12.21
2018-01-01T03:20:30.258Z,12.22
2018-01-01T03:21:30.685Z,12.31
2018-01-01T03:22:31.116Z,12.27
2018-01-01T03:23:31.540Z,12.29
2018-01-01T03:24:31.977Z,12.24
2018-01-01T03:25:32.399Z,12.32
2018-01-01T03:26:32.824Z,12.27
2018-01-01T03:27:33.252Z,12.31
2018-01-01T03:28:33.686Z,12.24
2018-01-01T03:29:34.107Z,12.24
2018-01-01T03:30:34.534Z,12.21
2018-01-01T03:31:34.988Z,12.32
2018-01-01T03:32:35.386Z,12.32
2018-01-01T03:33:35.814Z,12.25
2018-01-01T03:34:36.250Z,12.20
2018-01-01T03:35:36.672Z,12.21
2018-01-01T03:36:37.096Z,12.22
2018-01-01T03:37:37.544Z,12.28
2018-01-01T03:38:37.953Z,12.10
2018-01-01T03:39:38.493Z,12.13
2018-01-01T03:40:38.806Z,12.15
2018-01-01T03:41:39.237Z,12.22
2018-01-01T03:42:39.663Z,12.24
2018-01-01T03:43:40.100Z,12.17
2018-01-01T03:44:40.514Z,12.13
2018-01-01T03:45:40.947Z,12.06
2018-01-01T03:46:41.394Z,12.10
2018-01-01T03:47:41.797Z,12.15
2018-01-01T03:48:42.230Z,12.02
2018-01-01T03:49:42.658Z,12.07
2018-01-01T03:50:43.087Z,12.03
2018-01-01T03:51:43.509Z,11.90
2018-01-01T03:52:43.941Z,11.75
2018-01-01T03:53:44.360Z,11.90
2018-01-01T03:54:44.793Z,12.07
2018-01-01T03:55:45.236Z,11.86
2018-01-01T03:56:45.652Z,11.91
2018-01-01T03:57:46.078Z,11.88
2018-01-01T03:58:46.498Z,11.87
2018-01-01T03:59:46.928Z,11.91
2018-01-01T04:00:47.351Z,11.90
2018-01-01T04:01:47.786Z,11.94
2018-01-01T04:02:48.212Z,11.97
2018-01-01T04:03:48.637Z,11.97
2018-01-01T04:04:49.061Z,12.04
2018-01-01T04:05:49.493Z,11.90
2018-01-01T04:06:49.919Z,11.90
2018-01-01T04:07:50.343Z,11.86
2018-01-01T04:08:50.771Z,11.73
2018-01-01T04:09:51.195Z,11.77
2018-01-01T04:10:51.622Z,11.70
2018-01-01T04:11:52.053Z,11.77
2018-01-01T04:12:52.484Z,11.83
2018-01-01T04:13:52.908Z,11.86
2018-01-01T04:14:53.333Z,11.86
2018-01-01T04:15:53.759Z,11.88
2018-01-01T04:16:54.203Z,11.86
2018-01-01T04:17:54.617Z,11.88
2018-01-01T04:18:55.050Z,11.78
2018-01-01T04:19:55.473Z,11.69
2018-01-01T04:20:55.898Z,11.83
2018-01-01T04:21:56.323Z,11.75
2018-01-01T04:22:56.778Z,11.73
2018-01-01T04:23:57.183Z,11.68
2018-01-01T04:24:57.617Z,11.69
2018-01-01T04:25:58.035Z,11.69
2018-01-01T04:26:58.464Z,11.72
2018-01-01T04:27:58.888Z,11.84
2018-01-01T04:28:59.319Z,11.77
2018-01-01T04:29:59.744Z,11.80
2018-01-01T04:31:00.172Z,11.73
2018-01-01T04:32:00.627Z,11.70
2018-01-01T04:33:01.025Z,11.73
2018-01-01T04:34:01.461Z,11.60
2018-01-01T04:35:01.884Z,11.54
2018-01-01T04:36:02.311Z,11.63
2018-01-01T04:37:02.736Z,11.70
2018-01-01T04:38:03.160Z,11.70
2018-01-01T04:39:03.592Z,11.75
2018-01-01T04:40:04.023Z,11.70
2018-01-01T04:41:04.457Z,11.73
2018-01-01T04:42:04.873Z,11.69
2018-01-01T04:43:05.296Z,11.77
2018-01-01T04:44:05.725Z,11.73
2018-01-01T04:45:06.159Z,11.73
2018-01-01T04:46:06.587Z,11.55
2018-01-01T04:47:07.003Z,11.63
2018-01-01T04:48:07.433Z,11.60
2018-01-01T04:49:07.863Z,11.62
2018-01-01T04:50:08.285Z,11.60
2018-01-01T04:51:08.720Z,11.52
2018-01-01T04:52:09.141Z,11.57
2018-01-01T04:53:09.569Z,11.57
2018-01-01T04:54:10.023Z,11.52
2018-01-01T04:55:10.431Z,11.43
2018-01-01T04:56:10.849Z,11.40
2018-01-01T04:57:11.273Z,11.47
2018-01-01T04:58:11.709Z,11.50
2018-01-01T04:59:12.138Z,11.41
2018-01-01T05:00:12.569Z,11.26
2018-01-01T05:01:12.984Z,11.23
2018-01-01T05:02:13.412Z,11.44
2018-01-01T05:03:13.842Z,11.43
2018-01-01T05:04:14.271Z,11.32
2018-01-01T05:05:14.697Z,11.23
2018-01-01T05:06:15.121Z,11.36
2018-01-01T05:07:15.548Z,11.32
2018-01-01T05:08:15.981Z,11.33
2018-01-01T05:09:16.402Z,11.32
2018-01-01T05:10:16.894Z,11.27
2018-01-01T05:11:17.260Z,11.33
2018-01-01T05:12:17.689Z,11.43
2018-01-01T05:13:18.112Z,11.14
2018-01-01T05:14:18.537Z,11.18
2018-01-01T05:15:18.969Z,11.23
2018-01-01T05:16:19.393Z,11.23
2018-01-01T05:17:19.822Z,11.17
2018-01-01T05:18:20.247Z,11.26
2018-01-01T05:19:20.683Z,11.23
2018-01-01T05:20:21.103Z,11.26
2018-01-01T05:21:21.533Z,11.12
2018-01-01T05:22:21.953Z,11.14
2018-01-01T05:23:22.388Z,11.25
2018-01-01T05:24:22.810Z,11.14
2018-01-01T05:25:23.240Z,11.12
2018-01-01T05:26:23.666Z,11.17
2018-01-01T05:27:24.096Z,11.07
2018-01-01T05:28:24.521Z,11.22
2018-01-01T05:29:24.946Z,11.07
2018-01-01T05:30:25.371Z,11.00
2018-01-01T05:31:25.829Z,11.14
2018-01-01T05:32:26.230Z,11.12
2018-01-01T05:33:26.659Z,11.04
2018-01-01T05:34:27.082Z,11.11
2018-01-01T05:35:27.506Z,11.05
2018-01-01T05:36:27.939Z,11.15
2018-01-01T05:37:28.375Z,11.12
2018-01-01T05:38:28.797Z,11.04
2018-01-01T05:39:29.219Z,11.07
2018-01-01T05:40:29.648Z,10.89
2018-01-01T05:41:30.081Z,11.05
2018-01-01T05:42:30.500Z,11.00
2018-01-01T05:43:30.927Z,11.10
2018-01-01T05:44:31.354Z,11.07
2018-01-01T05:45:31.781Z,11.11
2018-01-01T05:46:32.205Z,11.11
2018-01-01T05:47:32.631Z,11.07
2018-01-01T05:48:33.061Z,11.18
2018-01-01T05:49:33.494Z,10.96
2018-01-01T05:50:33.912Z,11.05
2018-01-01T05:51:34.368Z,11.18
2018-01-01T05:52:34.777Z,11.07
2018-01-01T05:53:35.196Z,11.11
2018-01-01T05:54:35.619Z,11.19
2018-01-01T05:55:36.047Z,11.07
2018-01-01T05:56:36.476Z,11.08
2018-01-01T05:57:36.907Z,11.08
2018-01-01T05:58:37.330Z,10.99
2018-01-01T05:59:37.756Z,11.04
2018-01-01T06:00:38.176Z,10.94
2018-01-01T06:01:38.604Z,11.11
2018-01-01T06:02:39.034Z,11.00
2018-01-01T06:03:39.462Z,11.12
2018-01-01T06:04:39.886Z,11.15
2018-01-01T06:05:40.312Z,11.10
2018-01-01T06:06:40.740Z,10.99
2018-01-01T06:07:41.176Z,11.11
2018-01-01T06:08:41.593Z,10.94
2018-01-01T06:09:42.027Z,10.99
2018-01-01T06:10:42.453Z,11.14
2018-01-01T06:11:42.872Z,11.08
2018-01-01T06:12:43.310Z,11.02
2018-01-01T06:13:43.724Z,11.00
2018-01-01T06:14:44.156Z,11.07
2018-01-01T06:15:44.580Z,10.97
2018-01-01T06:16:45.014Z,11.02
2018-01-01T06:17:45.434Z,11.08
2018-01-01T06:18:45.864Z,11.08
2018-01-01T06:19:46.295Z,10.96
2018-01-01T06:20:46.719Z,10.96
2018-01-01T06:21:47.141Z,10.86
2018-01-01T06:22:47.567Z,10.92
2018-01-01T06:23:47.997Z,11.02
2018-01-01T06:24:48.426Z,10.96
2018-01-01T06:25:48.842Z,11.02
2018-01-01T06:26:49.274Z,10.86
2018-01-01T06:27:49.698Z,10.89
2018-01-01T06:28:50.125Z,10.96
2018-01-01T06:29:50.555Z,11.05
2018-01-01T06:30:50.976Z,11.05
2018-01-01T06:31:51.404Z,11.00
2018-01-01T06:32:51.831Z,11.04
2018-01-01T06:33:52.260Z,11.04
2018-01-01T06:34:52.688Z,10.97
2018-01-01T06:35:53.109Z,11.07
2018-01-01T06:36:53.535Z,11.00
2018-01-01T06:37:53.966Z,11.10
2018-01-01T06:38:54.385Z,11.08
2018-01-01T06:39:54.812Z,11.14
2018-01-01T06:40:55.240Z,11.12
2018-01-01T06:41:55.667Z,11.00
2018-01-01T06:42:56.088Z,11.07
2018-01-01T06:43:56.514Z,11.07
2018-01-01T06:44:56.953Z,10.97
2018-01-01T06:45:57.370Z,10.99
2018-01-01T06:46:57.797Z,11.02
2018-01-01T06:47:58.215Z,10.87
2018-01-01T06:48:58.651Z,10.93
2018-01-01T06:49:59.068Z,10.78
2018-01-01T06:50:59.493Z,10.94
2018-01-01T06:51:59.928Z,10.89
2018-01-01T06:53:00.346Z,10.89
2018-01-01T06:54:00.792Z,10.92
2018-01-01T06:55:01.224Z,10.94
2018-01-01T06:56:01.613Z,10.93
2018-01-01T06:57:02.051Z,10.92
2018-01-01T06:58:02.472Z,10.93
2018-01-01T06:59:02.899Z,10.84
2018-01-01T07:00:03.332Z,10.81
2018-01-01T07:01:03.752Z,10.87
2018-01-01T07:02:04.175Z,10.78
2018-01-01T07:03:04.600Z,10.86
2018-01-01T07:04:05.029Z,10.82
2018-01-01T07:05:05.452Z,10.72
2018-01-01T07:06:05.876Z,10.76
2018-01-01T07:07:06.301Z,10.69
2018-01-01T07:08:06.733Z,10.75
2018-01-01T07:09:07.154Z,10.74
2018-01-01T07:10:07.579Z,10.72
2018-01-01T07:11:08.007Z,10.72
2018-01-01T07:12:08.432Z,10.72
2018-01-01T07:13:08.855Z,10.64
2018-01-01T07:14:09.278Z,10.68
2018-01-01T07:15:09.714Z,10.76
2018-01-01T07:16:10.131Z,10.68
2018-01-01T07:17:10.561Z,10.78
2018-01-01T07:18:10.979Z,10.76
2018-01-01T07:19:11.421Z,10.64
2018-01-01T07:20:11.844Z,10.60
2018-01-01T07:21:12.256Z,10.59
2018-01-01T07:22:12.684Z,10.57
2018-01-01T07:23:13.106Z,10.61
2018-01-01T07:24:13.535Z,10.56
2018-01-01T07:25:13.960Z,10.56
2018-01-01T07:26:14.387Z,10.57
2018-01-01T07:27:14.819Z,10.53
2018-01-01T07:28:15.255Z,10.59
2018-01-01T07:29:15.655Z,10.54
2018-01-01T07:31:10.272Z,10.60
2018-01-01T07:32:10.678Z,10.53
2018-01-01T07:34:05.280Z,10.53
2018-01-01T07:35:05.697Z,10.48
2018-01-01T07:37:00.282Z,10.63
2018-01-01T07:38:00.726Z,10.56
2018-01-01T07:39:55.317Z,10.57
2018-01-01T07:40:55.733Z,10.57
2018-01-01T07:42:50.334Z,10.53
2018-01-01T07:43:50.761Z,10.67
2018-01-01T07:45:45.363Z,10.49
2018-01-01T07:46:45.777Z,10.51
2018-01-01T07:48:40.371Z,10.49
2018-01-01T07:49:40.799Z,10.53
2018-01-01T07:50:41.255Z,10.51
2018-01-01T07:53:14.795Z,10.54
2018-01-01T07:54:15.209Z,10.41
2018-01-01T07:56:09.807Z,10.46
2018-01-01T07:57:10.218Z,10.53
2018-01-01T07:59:04.815Z,10.56
2018-01-01T08:00:05.244Z,10.57
2018-01-01T08:02:00.880Z,10.54
2018-01-01T08:03:01.258Z,10.51
2018-01-01T08:04:57.818Z,10.53
2018-01-01T08:05:58.249Z,10.44
2018-01-01T08:06:58.674Z,10.49
2018-01-01T08:07:59.100Z,10.41
2018-01-01T08:08:59.547Z,10.51
2018-01-01T08:09:59.952Z,10.44
2018-01-01T08:11:00.379Z,10.37
2018-01-01T08:12:00.810Z,10.37
2018-01-01T08:13:01.236Z,10.38
2018-01-01T08:14:01.660Z,10.42
2018-01-01T08:15:02.084Z,10.44
2018-01-01T08:16:02.506Z,10.40
2018-01-01T08:17:02.930Z,10.41
2018-01-01T08:18:03.358Z,10.38
2018-01-01T08:19:03.787Z,10.51
2018-01-01T08:20:04.215Z,10.25
2018-01-01T08:21:04.632Z,10.20
2018-01-01T08:22:05.068Z,10.19
2018-01-01T08:23:05.513Z,10.16
2018-01-01T08:24:05.918Z,10.17
2018-01-01T08:25:06.340Z,10.22
2018-01-01T08:26:06.776Z,10.20
2018-01-01T08:27:07.192Z,10.22
2018-01-01T08:28:07.621Z,10.17
2018-01-01T08:29:08.045Z,10.26
2018-01-01T08:30:08.472Z,10.28
2018-01-01T08:31:08.897Z,10.35
2018-01-01T08:32:09.319Z,10.42
2018-01-01T08:33:09.750Z,10.46
2018-01-01T08:34:10.174Z,10.38
2018-01-01T08:35:10.603Z,10.40
2018-01-01T08:36:11.028Z,10.44
2018-01-01T08:37:11.457Z,10.56
2018-01-01T08:38:11.877Z,10.35
2018-01-01T08:39:12.304Z,10.23
2018-01-01T08:40:12.742Z,10.30
2018-01-01T08:41:13.155Z,10.35
2018-01-01T08:42:13.582Z,10.16
2018-01-01T08:43:14.010Z,10.19
2018-01-01T08:44:14.440Z,10.26
2018-01-01T08:45:14.861Z,10.23
2018-01-01T08:46:15.285Z,10.30
2018-01-01T08:47:15.719Z,10.16
2018-01-01T08:48:16.144Z,10.22
2018-01-01T08:49:16.567Z,10.19
2018-01-01T08:50:16.993Z,10.22
2018-01-01T08:51:17.420Z,10.19
2018-01-01T08:52:17.847Z,10.09
2018-01-01T08:53:18.264Z,10.22
2018-01-01T08:54:18.696Z,10.01
2018-01-01T08:55:19.118Z,10.07
2018-01-01T08:56:19.552Z,10.07
2018-01-01T08:57:19.983Z,10.12
2018-01-01T08:58:20.398Z,10.10
2018-01-01T08:59:20.833Z,10.19
2018-01-01T09:00:21.248Z,10.20
2018-01-01T09:01:21.678Z,10.20
2018-01-01T09:02:22.101Z,10.26
2018-01-01T09:03:22.531Z,10.17
2018-01-01T09:04:22.960Z,10.37
2018-01-01T09:05:23.407Z,10.19
2018-01-01T09:06:23.809Z,10.22
2018-01-01T09:07:24.233Z,10.16
2018-01-01T09:08:24.657Z,10.28
2018-01-01T09:09:25.084Z,10.13
2018-01-01T09:10:25.508Z,10.20
2018-01-01T09:11:25.943Z,10.22
2018-01-01T09:12:26.363Z,10.35
2018-01-01T09:13:26.793Z,10.48
2018-01-01T09:14:27.213Z,10.22
2018-01-01T09:15:27.640Z,10.15
2018-01-01T09:16:28.065Z,10.17
2018-01-01T09:17:28.493Z,10.33
2018-01-01T09:18:28.918Z,10.41
2018-01-01T09:19:29.359Z,10.49
2018-01-01T09:20:29.773Z,10.42
2018-01-01T09:21:30.214Z,10.46
2018-01-01T09:22:30.624Z,10.48
2018-01-01T09:23:31.053Z,10.41
2018-01-01T09:24:31.482Z,10.49
2018-01-01T09:25:31.913Z,10.53
2018-01-01T09:26:32.329Z,10.57
2018-01-01T09:27:32.752Z,10.38
2018-01-01T09:28:33.187Z,10.42
2018-01-01T09:29:33.605Z,10.63
2018-01-01T09:30:34.036Z,10.59
2018-01-01T09:31:34.459Z,10.54
2018-01-01T09:32:34.892Z,10.67
2018-01-01T09:33:35.312Z,10.35
2018-01-01T09:34:35.738Z,10.53
2018-01-01T09:35:36.169Z,10.60
2018-01-01T09:36:36.592Z,10.56
2018-01-01T09:37:37.019Z,10.51
2018-01-01T09:38:37.447Z,10.71
2018-01-01T09:39:37.893Z,10.68
2018-01-01T09:40:38.298Z,10.75
2018-01-01T09:41:38.721Z,10.60
2018-01-01T09:42:39.148Z,10.56
2018-01-01T09:43:39.577Z,10.60
2018-01-01T09:44:40.003Z,10.53
2018-01-01T09:45:40.426Z,10.72
2018-01-01T09:46:40.854Z,10.68
2018-01-01T09:47:41.282Z,10.74
2018-01-01T09:48:41.710Z,10.64
2018-01-01T09:49:42.138Z,10.76
2018-01-01T09:50:42.562Z,10.86
2018-01-01T09:51:42.988Z,10.92
2018-01-01T09:52:43.411Z,10.81
2018-01-01T09:53:43.842Z,10.72
2018-01-01T09:54:44.270Z,10.64
2018-01-01T09:55:44.698Z,10.72
2018-01-01T09:56:45.120Z,10.93
2018-01-01T09:57:45.550Z,10.87
2018-01-01T09:58:45.979Z,10.97
2018-01-01T09:59:46.401Z,10.97
2018-01-01T10:00:46.829Z,11.19
2018-01-01T10:01:47.253Z,11.17
2018-01-01T10:02:47.680Z,11.00
2018-01-01T10:03:48.110Z,10.89
2018-01-01T10:04:48.539Z,10.94
2018-01-01T10:05:48.959Z,11.04
2018-01-01T10:06:49.388Z,11.12
2018-01-01T10:07:49.817Z,11.25
2018-01-01T10:08:50.242Z,11.40
2018-01-01T10:09:50.677Z,11.73
2018-01-01T10:10:51.100Z,12.00
2018-01-01T10:11:51.533Z,11.90
2018-01-01T10:12:51.961Z,11.57
2018-01-01T10:13:52.399Z,11.19
2018-01-01T10:14:52.812Z,11.68
2018-01-01T10:15:53.240Z,11.44
2018-01-01T10:16:53.672Z,11.33
2018-01-01T10:17:54.099Z,11.43
2018-01-01T10:18:54.529Z,11.52
2018-01-01T10:19:54.959Z,11.60
2018-01-01T10:20:55.435Z,11.57
2018-01-01T10:21:55.818Z,11.54
2018-01-01T10:22:56.251Z,11.23
2018-01-01T10:23:56.675Z,11.19
2018-01-01T10:24:57.106Z,11.22
2018-01-01T10:25:57.533Z,11.05
2018-01-01T10:26:57.976Z,10.84
2018-01-01T10:29:31.538Z,10.78
2018-01-01T10:30:31.955Z,10.81
2018-01-01T10:32:26.568Z,10.76
2018-01-01T10:33:26.975Z,10.76
2018-01-01T10:35:21.562Z,10.57
2018-01-01T10:36:22.001Z,10.61
2018-01-01T10:38:16.591Z,10.61
2018-01-01T10:39:17.010Z,10.72
2018-01-01T10:41:11.592Z,10.72
2018-01-01T10:42:12.024Z,10.69
2018-01-01T10:44:06.624Z,10.64
2018-01-01T10:45:07.041Z,10.63
2018-01-01T10:47:01.628Z,10.59
2018-01-01T10:48:02.052Z,10.74
2018-01-01T10:49:56.654Z,10.67
2018-01-01T10:50:57.074Z,10.42
2018-01-01T10:52:51.652Z,10.42
2018-01-01T10:53:52.086Z,10.53
2018-01-01T10:55:46.699Z,10.44
2018-01-01T10:56:47.112Z,10.41
2018-01-01T10:58:41.708Z,10.44
2018-01-01T10:59:42.124Z,10.54
2018-01-01T11:01:36.709Z,10.49
2018-01-01T11:02:37.138Z,10.54
2018-01-01T11:03:37.568Z,10.57
2018-01-01T11:04:37.998Z,10.42
2018-01-01T11:05:38.418Z,10.46
2018-01-01T11:06:38.841Z,10.54
2018-01-01T11:07:39.266Z,10.48
2018-01-01T11:08:39.693Z,10.44
2018-01-01T11:09:40.117Z,10.40
2018-01-01T11:10:40.550Z,10.38
2018-01-01T11:11:40.973Z,10.48
2018-01-01T11:12:41.398Z,10.44
2018-01-01T11:13:41.818Z,10.56
2018-01-01T11:14:42.246Z,10.38
2018-01-01T11:15:42.676Z,10.42
2018-01-01T11:16:43.100Z,10.46
2018-01-01T11:17:43.523Z,10.51
2018-01-01T11:18:43.984Z,10.23
2018-01-01T11:19:44.373Z,10.38
2018-01-01T11:20:44.803Z,10.33
2018-01-01T11:21:45.262Z,10.42
2018-01-01T11:22:45.652Z,10.38
2018-01-01T11:23:46.075Z,10.37
2018-01-01T11:24:46.501Z,10.38
2018-01-01T11:25:46.943Z,10.40
2018-01-01T11:26:47.355Z,10.44
2018-01-01T11:27:47.779Z,10.42
2018-01-01T11:28:48.220Z,10.41
2018-01-01T11:29:48.629Z,10.41
2018-01-01T11:30:49.080Z,10.53
2018-01-01T11:31:49.481Z,10.38
2018-01-01T11:32:49.917Z,10.41
2018-01-01T11:33:50.335Z,10.53
2018-01-01T11:34:50.764Z,10.54
2018-01-01T11:35:51.186Z,10.57
2018-01-01T11:36:51.616Z,10.67
2018-01-01T11:37:52.038Z,10.67
2018-01-01T11:38:52.463Z,10.67
2018-01-01T11:39:52.901Z,10.64
2018-01-01T11:40:53.316Z,10.51
2018-01-01T11:41:53.745Z,10.76
2018-01-01T11:42:54.166Z,10.56
2018-01-01T11:43:54.596Z,10.53
2018-01-01T11:44:55.022Z,10.67
2018-01-01T11:45:55.447Z,10.72
2018-01-01T11:46:55.871Z,10.69
2018-01-01T11:47:56.302Z,10.81
2018-01-01T11:48:56.723Z,10.89
2018-01-01T11:49:57.172Z,10.75
2018-01-01T11:50:57.574Z,10.76
2018-01-01T11:51:58.004Z,10.69
2018-01-01T11:52:58.430Z,10.72
2018-01-01T11:53:58.862Z,10.57
2018-01-01T11:54:59.283Z,10.61
2018-01-01T11:55:59.711Z,10.72
2018-01-01T11:57:00.148Z,10.69
2018-01-01T11:58:00.565Z,10.69
2018-01-01T11:59:00.989Z,10.68
2018-01-01T12:00:01.418Z,10.84
2018-01-01T12:01:01.854Z,10.92
2018-01-01T12:02:02.268Z,10.87
2018-01-01T12:03:02.714Z,10.90
2018-01-01T12:04:03.124Z,10.84
2018-01-01T12:05:03.553Z,10.75
2018-01-01T12:06:04.030Z,10.64
2018-01-01T12:07:04.402Z,10.74
2018-01-01T12:08:04.865Z,10.81
2018-01-01T12:09:05.256Z,10.82
2018-01-01T12:10:05.683Z,10.74
2018-01-01T12:11:06.110Z,10.63
2018-01-01T12:12:06.535Z,10.72
2018-01-01T12:13:06.959Z,10.87
2018-01-01T12:14:07.387Z,10.87
2018-01-01T12:15:07.817Z,10.79
2018-01-01T12:16:08.239Z,10.64
2018-01-01T12:17:08.665Z,10.76
2018-01-01T12:18:09.099Z,10.84
2018-01-01T12:19:09.520Z,10.89
2018-01-01T12:20:09.949Z,10.72
2018-01-01T12:21:10.376Z,10.61
2018-01-01T12:22:10.799Z,10.68
2018-01-01T12:23:11.226Z,10.82
2018-01-01T12:24:11.650Z,10.86
2018-01-01T12:25:12.078Z,10.90
2018-01-01T12:26:12.506Z,10.82
2018-01-01T12:27:12.930Z,10.96
2018-01-01T12:28:13.365Z,10.92
2018-01-01T12:29:13.913Z,10.94
2018-01-01T12:30:14.212Z,10.74
2018-01-01T12:31:14.862Z,10.82
2018-01-01T12:32:15.069Z,10.76
2018-01-01T12:33:15.588Z,10.76
2018-01-01T12:34:15.918Z,10.72
2018-01-01T12:35:16.345Z,10.74
2018-01-01T12:36:16.790Z,10.76
2018-01-01T12:37:17.205Z,10.72
2018-01-01T12:38:17.727Z,10.81
2018-01-01T12:39:18.049Z,10.84
2018-01-01T12:40:18.476Z,10.79
2018-01-01T12:41:18.905Z,10.64
2018-01-01T12:42:19.327Z,10.74
2018-01-01T12:43:19.753Z,10.68
2018-01-01T12:44:20.184Z,10.69
2018-01-01T12:45:20.606Z,10.56
2018-01-01T12:46:21.032Z,10.75
2018-01-01T12:47:21.459Z,10.67
2018-01-01T12:48:21.884Z,10.64
2018-01-01T12:49:22.310Z,10.81
2018-01-01T12:50:22.736Z,10.79
2018-01-01T12:51:23.163Z,10.84
2018-01-01T12:52:23.594Z,10.81
2018-01-01T12:53:24.034Z,10.68
2018-01-01T12:54:24.446Z,10.63
2018-01-01T12:55:24.916Z,10.74
2018-01-01T12:56:25.304Z,10.71
2018-01-01T12:57:25.720Z,10.67
2018-01-01T12:58:26.170Z,10.69
2018-01-01T12:59:26.568Z,10.79
2018-01-01T13:00:27.013Z,10.81
2018-01-01T13:01:27.425Z,10.82
2018-01-01T13:02:27.854Z,10.76
2018-01-01T13:03:28.283Z,10.82
2018-01-01T13:04:28.724Z,10.92
2018-01-01T13:05:29.133Z,10.96
2018-01-01T13:06:29.557Z,10.99
2018-01-01T13:07:29.982Z,10.96
2018-01-01T13:08:30.419Z,10.75
2018-01-01T13:09:30.841Z,10.76
2018-01-01T13:10:31.265Z,10.84
2018-01-01T13:11:31.699Z,10.67
2018-01-01T13:12:32.114Z,10.59
2018-01-01T13:13:32.541Z,10.69
2018-01-01T13:14:32.965Z,10.59
2018-01-01T13:15:33.399Z,10.74
2018-01-01T13:16:33.823Z,10.75
2018-01-01T13:17:34.251Z,10.63
2018-01-01T13:18:34.678Z,10.68
2018-01-01T13:19:35.109Z,10.74
2018-01-01T13:20:35.551Z,10.81